ETH736 LIMC-LSZH
Flight info
| Callsign | ETH736 |
|---|---|
| Flight time | 0h 35m |
| Altitude | 26000 |
| Route | PEPAG DCT CANNE Z651 KELIP |
| Aircraft | A359/H-SDE2E3GHIJ3J4J5LM1ORWXY/LB1D1 |
Departure
| Time | 2026-05-04 22:22 |
|---|---|
| Airport | Milan Malpensa International Airport (LIMC) |
Arrival
| Time | 2026-05-04 22:58 |
|---|---|
| Airport | Zürich Airport (LSZH) |
| Time | Latitude | Longitude | Altitude | Speed | Heading |
|---|---|---|---|---|---|
| 2026-05-04 21:39 | 45.62508 | 8.71776 | 759 ft | 0 kts | 258° |
| 2026-05-04 22:04 | 45.62513 | 8.71809 | 754 ft | 4 kts | 258° |
| 2026-05-04 22:04 | 45.62518 | 8.71843 | 754 ft | 4 kts | 270° |
| 2026-05-04 22:04 | 45.62511 | 8.71869 | 753 ft | 4 kts | 342° |
| 2026-05-04 22:05 | 45.62487 | 8.71875 | 754 ft | 2 kts | 349° |
| 2026-05-04 22:05 | 45.62486 | 8.71875 | 754 ft | 0 kts | 349° |
| 2026-05-04 22:17 | 45.62518 | 8.71867 | 756 ft | 10 kts | 349° |
| 2026-05-04 22:17 | 45.62593 | 8.71846 | 758 ft | 11 kts | 349° |
| 2026-05-04 22:17 | 45.62655 | 8.71885 | 755 ft | 12 kts | 66° |
| 2026-05-04 22:17 | 45.62674 | 8.72006 | 753 ft | 13 kts | 79° |
| 2026-05-04 22:18 | 45.62713 | 8.72103 | 753 ft | 9 kts | 21° |
| 2026-05-04 22:18 | 45.62782 | 8.72103 | 755 ft | 13 kts | 353° |
| 2026-05-04 22:18 | 45.62881 | 8.72080 | 756 ft | 16 kts | 349° |
| 2026-05-04 22:18 | 45.62996 | 8.72046 | 755 ft | 18 kts | 348° |
| 2026-05-04 22:19 | 45.63129 | 8.72009 | 757 ft | 21 kts | 349° |
| 2026-05-04 22:19 | 45.63280 | 8.71967 | 753 ft | 23 kts | 349° |
| 2026-05-04 22:19 | 45.63444 | 8.71922 | 754 ft | 25 kts | 349° |
| 2026-05-04 22:19 | 45.63622 | 8.71873 | 753 ft | 27 kts | 349° |
| 2026-05-04 22:20 | 45.63813 | 8.71823 | 753 ft | 29 kts | 349° |
| 2026-05-04 22:20 | 45.64014 | 8.71767 | 753 ft | 30 kts | 349° |
| 2026-05-04 22:20 | 45.64227 | 8.71708 | 755 ft | 32 kts | 349° |
| 2026-05-04 22:20 | 45.64387 | 8.71667 | 754 ft | 15 kts | 351° |
| 2026-05-04 22:21 | 45.64457 | 8.71685 | 752 ft | 10 kts | 42° |
| 2026-05-04 22:21 | 45.64485 | 8.71800 | 749 ft | 15 kts | 76° |
| 2026-05-04 22:21 | 45.64439 | 8.71907 | 749 ft | 17 kts | 167° |
| 2026-05-04 22:21 | 45.64094 | 8.72001 | 751 ft | 88 kts | 169° |
| 2026-05-04 22:22 | 45.63261 | 8.72229 | 755 ft | 153 kts | 168° |
| 2026-05-04 22:22 | 45.62097 | 8.72566 | 1156 ft | 176 kts | 169° |
| 2026-05-04 22:22 | 45.60915 | 8.72878 | 1911 ft | 174 kts | 176° |
| 2026-05-04 22:22 | 45.59626 | 8.72964 | 2264 ft | 197 kts | 179° |
| 2026-05-04 22:23 | 45.58186 | 8.73082 | 2494 ft | 218 kts | 173° |
| 2026-05-04 22:23 | 45.56668 | 8.73721 | 2791 ft | 236 kts | 154° |
| 2026-05-04 22:23 | 45.55342 | 8.75126 | 3367 ft | 240 kts | 133° |
| 2026-05-04 22:23 | 45.54424 | 8.77124 | 3921 ft | 244 kts | 113° |
| 2026-05-04 22:24 | 45.54043 | 8.79483 | 4475 ft | 247 kts | 92° |
| 2026-05-04 22:24 | 45.54246 | 8.81911 | 5035 ft | 249 kts | 75° |
| 2026-05-04 22:24 | 45.54757 | 8.84279 | 5606 ft | 251 kts | 72° |
| 2026-05-04 22:24 | 45.55310 | 8.86642 | 6212 ft | 252 kts | 72° |
| 2026-05-04 22:25 | 45.55840 | 8.88938 | 6796 ft | 252 kts | 73° |
| 2026-05-04 22:25 | 45.56395 | 8.91334 | 7439 ft | 257 kts | 72° |
| 2026-05-04 22:25 | 45.57264 | 8.93581 | 8330 ft | 264 kts | 51° |
| 2026-05-04 22:25 | 45.58629 | 8.95413 | 9109 ft | 279 kts | 41° |
| 2026-05-04 22:26 | 45.60192 | 8.97196 | 9768 ft | 295 kts | 40° |
| 2026-05-04 22:26 | 45.61831 | 8.99038 | 10480 ft | 308 kts | 40° |
| 2026-05-04 22:26 | 45.63464 | 9.01197 | 10832 ft | 332 kts | 53° |
| 2026-05-04 22:26 | 45.64510 | 9.04203 | 11178 ft | 348 kts | 80° |
| 2026-05-04 22:27 | 45.64723 | 9.07679 | 11790 ft | 357 kts | 92° |
| 2026-05-04 22:27 | 45.64721 | 9.11270 | 12552 ft | 365 kts | 93° |
| 2026-05-04 22:27 | 45.64712 | 9.14933 | 13349 ft | 372 kts | 92° |
| 2026-05-04 22:27 | 45.64713 | 9.18667 | 14123 ft | 379 kts | 92° |
| 2026-05-04 22:28 | 45.64722 | 9.22468 | 14855 ft | 385 kts | 92° |
| 2026-05-04 22:28 | 45.64735 | 9.26315 | 15598 ft | 390 kts | 92° |
| 2026-05-04 22:28 | 45.64749 | 9.30211 | 16340 ft | 395 kts | 92° |
| 2026-05-04 22:28 | 45.64805 | 9.34160 | 17077 ft | 401 kts | 88° |
| 2026-05-04 22:29 | 45.65379 | 9.38087 | 17909 ft | 409 kts | 70° |
| 2026-05-04 22:29 | 45.66814 | 9.41619 | 18618 ft | 416 kts | 50° |
| 2026-05-04 22:29 | 45.69012 | 9.44305 | 19292 ft | 419 kts | 30° |
| 2026-05-04 22:29 | 45.71685 | 9.45819 | 19887 ft | 421 kts | 11° |
| 2026-05-04 22:30 | 45.74601 | 9.46031 | 20576 ft | 423 kts | 351° |
| 2026-05-04 22:30 | 45.77416 | 9.44887 | 21273 ft | 422 kts | 332° |
| 2026-05-04 22:30 | 45.79841 | 9.42543 | 21964 ft | 422 kts | 316° |
| 2026-05-04 22:30 | 45.81955 | 9.39603 | 22612 ft | 425 kts | 309° |
| 2026-05-04 22:31 | 45.83777 | 9.36259 | 23312 ft | 427 kts | 303° |
| 2026-05-04 22:31 | 45.85509 | 9.32777 | 23925 ft | 431 kts | 302° |
| 2026-05-04 22:31 | 45.87281 | 9.29212 | 24562 ft | 434 kts | 303° |
| 2026-05-04 22:31 | 45.89024 | 9.25733 | 25227 ft | 436 kts | 302° |
| 2026-05-04 22:32 | 45.90827 | 9.22148 | 25781 ft | 439 kts | 303° |
| 2026-05-04 22:32 | 45.92618 | 9.18599 | 26031 ft | 440 kts | 303° |
| 2026-05-04 22:32 | 45.94443 | 9.14980 | 26060 ft | 456 kts | 303° |
| 2026-05-04 22:32 | 45.96342 | 9.11216 | 26078 ft | 472 kts | 303° |
| 2026-05-04 22:33 | 45.98422 | 9.07612 | 26069 ft | 480 kts | 311° |
| 2026-05-04 22:33 | 46.00929 | 9.04407 | 26074 ft | 483 kts | 317° |
| 2026-05-04 22:33 | 46.03594 | 9.01447 | 26076 ft | 486 kts | 320° |
| 2026-05-04 22:33 | 46.06342 | 8.98594 | 26079 ft | 488 kts | 322° |
| 2026-05-04 22:34 | 46.09124 | 8.95781 | 26071 ft | 488 kts | 322° |
| 2026-05-04 22:34 | 46.11909 | 8.92970 | 26077 ft | 489 kts | 322° |
| 2026-05-04 22:34 | 46.14723 | 8.90465 | 26074 ft | 492 kts | 329° |
| 2026-05-04 22:34 | 46.17900 | 8.88557 | 26075 ft | 496 kts | 340° |
| 2026-05-04 22:35 | 46.21271 | 8.87485 | 26077 ft | 498 kts | 348° |
| 2026-05-04 22:35 | 46.24710 | 8.86777 | 26078 ft | 499 kts | 351° |
| 2026-05-04 22:35 | 46.28169 | 8.86217 | 26070 ft | 500 kts | 352° |
| 2026-05-04 22:35 | 46.31634 | 8.85733 | 26074 ft | 501 kts | 353° |
| 2026-05-04 22:36 | 46.35105 | 8.85266 | 26079 ft | 501 kts | 353° |
| 2026-05-04 22:36 | 46.38572 | 8.84793 | 26085 ft | 501 kts | 352° |
| 2026-05-04 22:36 | 46.42047 | 8.84300 | 26075 ft | 503 kts | 352° |
| 2026-05-04 22:36 | 46.45542 | 8.83786 | 26083 ft | 504 kts | 352° |
| 2026-05-04 22:37 | 46.49030 | 8.83263 | 26069 ft | 504 kts | 352° |
| 2026-05-04 22:37 | 46.52522 | 8.82734 | 26059 ft | 504 kts | 352° |
| 2026-05-04 22:37 | 46.56006 | 8.82207 | 25949 ft | 501 kts | 352° |
| 2026-05-04 22:37 | 46.59457 | 8.81683 | 25695 ft | 496 kts | 352° |
| 2026-05-04 22:38 | 46.62837 | 8.81172 | 25449 ft | 495 kts | 352° |
| 2026-05-04 22:38 | 46.66257 | 8.80655 | 25215 ft | 493 kts | 352° |
| 2026-05-04 22:38 | 46.69659 | 8.80136 | 24975 ft | 491 kts | 352° |
| 2026-05-04 22:38 | 46.73055 | 8.79618 | 24724 ft | 490 kts | 352° |
| 2026-05-04 22:39 | 46.76434 | 8.79102 | 24486 ft | 488 kts | 352° |
| 2026-05-04 22:39 | 46.79809 | 8.78588 | 24255 ft | 487 kts | 352° |
| 2026-05-04 22:39 | 46.83165 | 8.78076 | 24015 ft | 485 kts | 352° |
| 2026-05-04 22:39 | 46.86514 | 8.77565 | 23783 ft | 483 kts | 352° |
| 2026-05-04 22:40 | 46.89808 | 8.77061 | 23537 ft | 481 kts | 352° |
| 2026-05-04 22:40 | 46.93126 | 8.76553 | 23258 ft | 478 kts | 352° |
| 2026-05-04 22:40 | 46.96425 | 8.76047 | 22908 ft | 474 kts | 352° |
| 2026-05-04 22:40 | 46.99673 | 8.75544 | 22327 ft | 466 kts | 352° |
| 2026-05-04 22:41 | 47.02873 | 8.75034 | 21686 ft | 460 kts | 352° |
| 2026-05-04 22:41 | 47.06027 | 8.74531 | 21054 ft | 454 kts | 351° |
| 2026-05-04 22:41 | 47.09150 | 8.73971 | 20378 ft | 449 kts | 348° |
| 2026-05-04 22:41 | 47.12188 | 8.73157 | 19727 ft | 444 kts | 346° |
| 2026-05-04 22:42 | 47.15218 | 8.72299 | 19087 ft | 439 kts | 347° |
| 2026-05-04 22:42 | 47.18197 | 8.71473 | 18490 ft | 433 kts | 347° |
| 2026-05-04 22:42 | 47.21151 | 8.70671 | 17800 ft | 429 kts | 347° |
| 2026-05-04 22:42 | 47.24067 | 8.69887 | 17069 ft | 425 kts | 347° |
| 2026-05-04 22:43 | 47.26935 | 8.68929 | 16355 ft | 419 kts | 340° |
| 2026-05-04 22:43 | 47.29615 | 8.67328 | 15669 ft | 413 kts | 333° |
| 2026-05-04 22:43 | 47.32208 | 8.65555 | 14968 ft | 409 kts | 333° |
| 2026-05-04 22:43 | 47.34779 | 8.63776 | 14278 ft | 406 kts | 333° |
| 2026-05-04 22:44 | 47.37304 | 8.61957 | 13567 ft | 402 kts | 329° |
| 2026-05-04 22:44 | 47.39713 | 8.59909 | 12797 ft | 397 kts | 327° |
| 2026-05-04 22:44 | 47.42063 | 8.57815 | 12097 ft | 393 kts | 326° |
| 2026-05-04 22:44 | 47.44186 | 8.55346 | 11363 ft | 385 kts | 311° |
| 2026-05-04 22:45 | 47.45627 | 8.52118 | 10956 ft | 369 kts | 291° |
| 2026-05-04 22:45 | 47.46675 | 8.45084 | 10458 ft | 337 kts | 276° |
| 2026-05-04 22:45 | 47.46989 | 8.41722 | 10258 ft | 323 kts | 276° |
| 2026-05-04 22:46 | 47.47291 | 8.38497 | 10071 ft | 310 kts | 276° |
| 2026-05-04 22:46 | 47.47582 | 8.35403 | 9908 ft | 298 kts | 276° |
| 2026-05-04 22:46 | 47.47866 | 8.32428 | 9741 ft | 286 kts | 275° |
| 2026-05-04 22:46 | 47.48139 | 8.29550 | 9366 ft | 281 kts | 275° |
| 2026-05-04 22:47 | 47.48406 | 8.26695 | 8862 ft | 281 kts | 275° |
| 2026-05-04 22:47 | 47.48674 | 8.23843 | 8461 ft | 279 kts | 275° |
| 2026-05-04 22:47 | 47.48941 | 8.21008 | 8016 ft | 278 kts | 275° |
| 2026-05-04 22:47 | 47.49208 | 8.18176 | 7582 ft | 277 kts | 276° |
| 2026-05-04 22:48 | 47.49473 | 8.15357 | 7143 ft | 277 kts | 276° |
| 2026-05-04 22:48 | 47.49738 | 8.12539 | 6729 ft | 276 kts | 276° |
| 2026-05-04 22:48 | 47.50043 | 8.09743 | 6302 ft | 276 kts | 282° |
| 2026-05-04 22:48 | 47.50828 | 8.07163 | 5866 ft | 277 kts | 306° |
| 2026-05-04 22:49 | 47.52283 | 8.05340 | 5444 ft | 276 kts | 332° |
| 2026-05-04 22:49 | 47.54126 | 8.04651 | 5099 ft | 275 kts | 357° |
| 2026-05-04 22:49 | 47.55966 | 8.05194 | 4678 ft | 276 kts | 23° |
| 2026-05-04 22:49 | 47.57502 | 8.06921 | 4265 ft | 276 kts | 50° |
| 2026-05-04 22:50 | 47.58349 | 8.09420 | 4029 ft | 273 kts | 77° |
| 2026-05-04 22:50 | 47.58460 | 8.12210 | 4001 ft | 272 kts | 95° |
| 2026-05-04 22:50 | 47.58271 | 8.14997 | 3997 ft | 272 kts | 97° |
| 2026-05-04 22:50 | 47.58057 | 8.17785 | 3996 ft | 272 kts | 97° |
| 2026-05-04 22:51 | 47.57850 | 8.20566 | 3996 ft | 267 kts | 97° |
| 2026-05-04 22:51 | 47.57660 | 8.23200 | 4004 ft | 248 kts | 97° |
| 2026-05-04 22:51 | 47.57537 | 8.25660 | 4006 ft | 232 kts | 90° |
| 2026-05-04 22:51 | 47.57786 | 8.27902 | 4002 ft | 216 kts | 71° |
| 2026-05-04 22:52 | 47.58336 | 8.29932 | 4003 ft | 205 kts | 66° |
| 2026-05-04 22:52 | 47.58893 | 8.31772 | 4011 ft | 187 kts | 65° |
| 2026-05-04 22:52 | 47.59417 | 8.33490 | 4021 ft | 182 kts | 65° |
| 2026-05-04 22:52 | 47.59876 | 8.35140 | 4015 ft | 170 kts | 73° |
| 2026-05-04 22:53 | 47.59831 | 8.36826 | 4006 ft | 165 kts | 116° |
| 2026-05-04 22:53 | 47.59322 | 8.38320 | 4009 ft | 159 kts | 127° |
| 2026-05-04 22:53 | 47.58586 | 8.39464 | 3998 ft | 148 kts | 140° |
| 2026-05-04 22:53 | 47.57836 | 8.40455 | 3999 ft | 144 kts | 138° |
| 2026-05-04 22:54 | 47.57098 | 8.41474 | 3826 ft | 145 kts | 137° |
| 2026-05-04 22:54 | 47.56358 | 8.42493 | 3606 ft | 145 kts | 138° |
| 2026-05-04 22:54 | 47.55619 | 8.43503 | 3428 ft | 144 kts | 138° |
| 2026-05-04 22:54 | 47.54880 | 8.44512 | 3224 ft | 144 kts | 138° |
| 2026-05-04 22:55 | 47.54145 | 8.45518 | 3031 ft | 144 kts | 138° |
| 2026-05-04 22:55 | 47.53414 | 8.46515 | 2847 ft | 142 kts | 138° |
| 2026-05-04 22:55 | 47.52685 | 8.47502 | 2665 ft | 141 kts | 139° |
| 2026-05-04 22:55 | 47.51955 | 8.48472 | 2480 ft | 140 kts | 139° |
| 2026-05-04 22:56 | 47.51229 | 8.49429 | 2280 ft | 140 kts | 138° |
| 2026-05-04 22:56 | 47.50520 | 8.50406 | 2068 ft | 139 kts | 136° |
| 2026-05-04 22:56 | 47.49837 | 8.51397 | 1840 ft | 136 kts | 136° |
| 2026-05-04 22:56 | 47.49140 | 8.52341 | 1691 ft | 135 kts | 138° |
| 2026-05-04 22:57 | 47.48446 | 8.53287 | 1515 ft | 136 kts | 138° |
| 2026-05-04 22:57 | 47.47761 | 8.54220 | 1407 ft | 124 kts | 137° |
| 2026-05-04 22:57 | 47.47419 | 8.54690 | 1407 ft | 74 kts | 138° |
| 2026-05-04 22:57 | 47.46979 | 8.55287 | 1404 ft | 56 kts | 137° |
| 2026-05-04 22:58 | 47.46797 | 8.55531 | 1408 ft | 50 kts | 140° |
| 2026-05-04 22:58 | 47.46512 | 8.55704 | 1408 ft | 31 kts | 166° |
| 2026-05-04 22:58 | 47.46455 | 8.55724 | 1410 ft | 0 kts | 167° |
| 2026-05-04 22:59 | 47.46450 | 8.55726 | 1411 ft | 3 kts | 167° |
| 2026-05-04 22:59 | 47.46401 | 8.55749 | 1411 ft | 11 kts | 157° |
| 2026-05-04 22:59 | 47.46324 | 8.55836 | 1414 ft | 17 kts | 136° |
| 2026-05-04 23:00 | 47.46249 | 8.55892 | 1409 ft | 10 kts | 191° |
| 2026-05-04 23:00 | 47.46234 | 8.55784 | 1410 ft | 12 kts | 279° |
| 2026-05-04 23:00 | 47.46237 | 8.55715 | 1412 ft | 3 kts | 259° |
| 2026-05-04 23:00 | 47.46207 | 8.55684 | 1411 ft | 8 kts | 185° |
| 2026-05-04 23:01 | 47.46172 | 8.55683 | 1413 ft | 2 kts | 184° |
| 2026-05-04 23:01 | 47.46160 | 8.55681 | 1413 ft | 0 kts | 184° |